createdAt,value
2023-01-18T00:01:01.093Z,16.20
2023-01-18T00:03:22.654Z,16.73
2023-01-18T00:05:44.248Z,19.40
2023-01-18T00:08:05.381Z,16.07
2023-01-18T00:10:26.555Z,16.57
2023-01-18T00:12:48.052Z,17.77
2023-01-18T00:15:11.615Z,17.57
2023-01-18T00:17:32.568Z,14.97
2023-01-18T00:19:53.683Z,16.87
2023-01-18T00:22:14.919Z,17.53
2023-01-18T00:24:36.282Z,16.27
2023-01-18T00:26:57.341Z,18.10
2023-01-18T00:29:18.451Z,18.13
2023-01-18T00:31:40.946Z,19.17
2023-01-18T00:34:02.260Z,19.90
2023-01-18T00:36:23.406Z,19.23
2023-01-18T00:38:45.101Z,18.57
2023-01-18T00:41:06.252Z,19.83
2023-01-18T00:43:38.729Z,20.13
2023-01-18T00:45:59.711Z,20.10
2023-01-18T00:48:22.203Z,22.23
2023-01-18T00:50:43.567Z,17.27
2023-01-18T00:53:04.936Z,19.53
2023-01-18T00:55:26.563Z,20.23
2023-01-18T00:57:47.842Z,21.10
2023-01-18T01:00:12.309Z,19.97
2023-01-18T01:02:33.520Z,21.30
2023-01-18T01:05:13.888Z,21.77
2023-01-18T01:07:34.987Z,18.63
2023-01-18T01:09:57.935Z,17.67
2023-01-18T01:12:36.634Z,21.00
2023-01-18T01:15:15.599Z,21.67
2023-01-18T01:17:55.769Z,20.97
2023-01-18T01:20:36.209Z,20.23
2023-01-18T01:23:14.948Z,17.97
2023-01-18T01:25:54.828Z,22.20
2023-01-18T01:28:16.124Z,21.67
2023-01-18T01:30:37.643Z,21.10
2023-01-18T01:32:59.321Z,22.20
2023-01-18T01:35:22.198Z,22.13
2023-01-18T01:37:43.309Z,22.97
2023-01-18T01:40:04.851Z,23.07
2023-01-18T01:42:25.745Z,22.97
2023-01-18T01:44:50.015Z,24.77
2023-01-18T01:47:13.356Z,24.50
2023-01-18T01:49:35.572Z,24.70
2023-01-18T01:51:59.680Z,24.97
2023-01-18T01:54:22.789Z,24.23
2023-01-18T01:56:44.745Z,26.67
2023-01-18T01:59:06.877Z,24.93
2023-01-18T02:01:28.971Z,24.97
2023-01-18T02:03:49.992Z,24.63
2023-01-18T02:06:16.346Z,24.23
2023-01-18T02:08:38.965Z,23.80
2023-01-18T02:11:00.173Z,25.07
2023-01-18T02:13:23.872Z,22.57
2023-01-18T02:15:49.139Z,24.47
2023-01-18T02:18:22.533Z,23.97
2023-01-18T02:21:02.657Z,26.10
2023-01-18T02:23:33.101Z,26.23
2023-01-18T02:26:08.456Z,25.17
2023-01-18T02:28:33.612Z,26.50
2023-01-18T02:30:59.733Z,23.33
2023-01-18T02:33:27.740Z,24.00
2023-01-18T02:35:51.633Z,21.53
2023-01-18T02:38:14.223Z,26.20
2023-01-18T02:40:39.075Z,23.37
2023-01-18T02:43:19.619Z,24.77
2023-01-18T02:46:01.338Z,26.27
2023-01-18T02:48:23.749Z,25.73
2023-01-18T02:50:44.620Z,25.27
2023-01-18T02:53:05.989Z,26.00
2023-01-18T02:55:32.194Z,25.87
2023-01-18T02:57:54.564Z,26.50
2023-01-18T03:00:19.096Z,27.20
2023-01-18T03:02:42.405Z,24.10
2023-01-18T03:05:04.085Z,25.37
2023-01-18T03:07:27.556Z,24.33
2023-01-18T03:09:48.945Z,25.27
2023-01-18T03:12:15.283Z,25.20
2023-01-18T03:14:40.564Z,23.40
2023-01-18T03:17:04.578Z,24.70
2023-01-18T03:19:50.302Z,26.50
2023-01-18T03:22:11.481Z,24.97
2023-01-18T03:24:41.748Z,22.07
2023-01-18T03:27:20.512Z,22.23
2023-01-18T03:29:59.400Z,23.37
2023-01-18T03:32:38.377Z,21.77
2023-01-18T03:35:03.773Z,21.47
2023-01-18T03:37:27.712Z,23.07
2023-01-18T03:39:51.589Z,23.73
2023-01-18T03:42:15.511Z,21.53
2023-01-18T03:44:37.932Z,21.03
2023-01-18T03:46:58.976Z,19.83
2023-01-18T03:49:20.363Z,19.67
2023-01-18T03:51:48.175Z,21.10
2023-01-18T03:54:12.679Z,20.17
2023-01-18T03:56:37.139Z,21.87
2023-01-18T03:59:01.169Z,21.47
2023-01-18T04:01:22.470Z,19.30
2023-01-18T04:03:43.901Z,21.87
2023-01-18T04:06:06.031Z,20.93
2023-01-18T04:08:28.486Z,20.17
2023-01-18T04:10:49.777Z,19.73
2023-01-18T04:13:11.089Z,21.37
2023-01-18T04:15:32.401Z,20.93
2023-01-18T04:17:55.879Z,21.73
2023-01-18T04:20:17.329Z,20.47
2023-01-18T04:22:38.321Z,19.93
2023-01-18T04:25:00.951Z,20.47
2023-01-18T04:27:24.269Z,19.00
2023-01-18T04:29:45.555Z,20.70
2023-01-18T04:32:06.931Z,21.30
2023-01-18T04:34:28.195Z,23.57
2023-01-18T04:36:49.624Z,20.43
2023-01-18T04:39:12.042Z,18.17
2023-01-18T04:41:34.803Z,18.13
2023-01-18T04:43:56.104Z,19.03
2023-01-18T04:46:17.415Z,18.40
2023-01-18T04:48:38.608Z,17.20
2023-01-18T04:50:59.760Z,18.97
2023-01-18T04:53:21.338Z,18.23
2023-01-18T04:55:42.357Z,19.83
2023-01-18T04:58:04.968Z,19.60
2023-01-18T05:00:26.420Z,18.13
2023-01-18T05:02:48.387Z,16.03
2023-01-18T05:05:10.155Z,18.77
2023-01-18T05:07:33.330Z,18.03
2023-01-18T05:09:54.469Z,18.57
2023-01-18T05:12:15.776Z,18.57
2023-01-18T05:14:38.556Z,18.60
2023-01-18T05:16:59.901Z,18.87
2023-01-18T05:19:21.330Z,20.73
2023-01-18T05:21:42.354Z,19.43
2023-01-18T05:24:03.754Z,18.77
2023-01-18T05:26:25.374Z,19.63
2023-01-18T05:28:46.763Z,19.33
2023-01-18T05:31:09.662Z,21.47
2023-01-18T05:33:30.932Z,18.27
2023-01-18T05:35:53.292Z,18.67
2023-01-18T05:38:14.409Z,20.77
2023-01-18T05:40:35.745Z,22.40
2023-01-18T05:42:57.435Z,20.30
2023-01-18T05:45:19.757Z,20.70
2023-01-18T05:47:42.471Z,22.33
2023-01-18T05:50:03.898Z,23.07
2023-01-18T05:52:25.266Z,20.43
2023-01-18T05:54:46.615Z,20.80
2023-01-18T05:57:07.491Z,18.80
2023-01-18T05:59:28.877Z,19.60
2023-01-18T06:01:50.041Z,18.37
2023-01-18T06:04:12.593Z,20.03
2023-01-18T06:06:34.804Z,21.30
2023-01-18T06:08:56.353Z,18.17
2023-01-18T06:11:17.805Z,16.53
2023-01-18T06:13:38.995Z,17.77
2023-01-18T06:16:00.975Z,18.03
2023-01-18T06:18:22.317Z,16.77
2023-01-18T06:20:44.966Z,17.90
2023-01-18T06:23:06.328Z,19.13
2023-01-18T06:25:27.647Z,20.40
2023-01-18T06:27:48.627Z,20.47
2023-01-18T06:30:11.050Z,20.27
2023-01-18T06:32:32.128Z,18.10
2023-01-18T06:34:53.312Z,16.23
2023-01-18T06:37:15.906Z,13.63
2023-01-18T06:39:37.200Z,11.80
2023-01-18T06:41:58.594Z,11.23
2023-01-18T06:44:19.508Z,9.83
2023-01-18T06:46:41.007Z,10.57
2023-01-18T06:49:02.273Z,11.03
2023-01-18T06:51:24.066Z,14.43
2023-01-18T06:53:46.418Z,11.83
2023-01-18T06:56:10.301Z,9.73
2023-01-18T06:58:32.717Z,10.83
2023-01-18T07:00:55.795Z,11.20
2023-01-18T07:03:16.976Z,11.40
2023-01-18T07:05:38.142Z,17.43
2023-01-18T07:07:59.335Z,10.70
2023-01-18T07:10:21.975Z,61.03
2023-01-18T07:12:43.279Z,9.67
2023-01-18T07:15:20.383Z,12.00
2023-01-18T07:17:42.822Z,10.20
2023-01-18T07:20:05.082Z,10.53
2023-01-18T07:22:26.512Z,10.73
2023-01-18T07:24:47.809Z,10.30
2023-01-18T07:27:10.684Z,11.13
2023-01-18T07:29:31.903Z,15.70
2023-01-18T07:31:53.186Z,11.57
2023-01-18T07:34:14.473Z,21.23
2023-01-18T07:36:35.740Z,24.33
2023-01-18T07:38:56.896Z,12.67
2023-01-18T07:41:18.147Z,12.33
2023-01-18T07:43:41.198Z,11.30
2023-01-18T07:46:03.959Z,10.70
2023-01-18T07:48:25.564Z,12.00
2023-01-18T07:50:52.828Z,11.53
2023-01-18T07:53:13.871Z,11.43
2023-01-18T07:55:35.527Z,11.00
2023-01-18T07:57:56.781Z,12.80
2023-01-18T08:00:20.161Z,19.90
2023-01-18T08:02:41.788Z,12.70
2023-01-18T08:05:03.898Z,12.50
2023-01-18T08:07:25.576Z,17.00
2023-01-18T08:09:47.875Z,11.93
2023-01-18T08:12:14.125Z,15.50
2023-01-18T08:14:36.412Z,12.53
2023-01-18T08:17:00.150Z,13.17
2023-01-18T08:19:25.389Z,14.23
2023-01-18T08:21:46.753Z,14.87
2023-01-18T08:24:08.069Z,16.90
2023-01-18T08:26:30.993Z,15.00
2023-01-18T08:28:53.930Z,16.07
2023-01-18T08:31:21.768Z,15.30
2023-01-18T08:33:47.729Z,18.60
2023-01-18T08:36:17.242Z,14.27
2023-01-18T08:38:42.619Z,17.00
2023-01-18T08:41:06.777Z,13.80
2023-01-18T08:43:32.829Z,17.17
2023-01-18T08:45:56.231Z,17.30
2023-01-18T08:48:19.635Z,14.57
2023-01-18T08:50:47.242Z,16.23
2023-01-18T08:53:09.572Z,14.57
2023-01-18T08:55:34.552Z,12.50
2023-01-18T08:57:58.268Z,13.60
2023-01-18T09:00:23.990Z,14.97
2023-01-18T09:02:51.366Z,13.67
2023-01-18T09:05:14.155Z,13.60
2023-01-18T09:07:39.782Z,13.50
2023-01-18T09:10:07.320Z,12.70
2023-01-18T09:12:30.292Z,13.77
2023-01-18T09:14:54.180Z,12.03
2023-01-18T09:17:19.108Z,13.97
2023-01-18T09:19:42.141Z,13.53
2023-01-18T09:22:05.054Z,12.23
2023-01-18T09:24:30.071Z,12.33
2023-01-18T09:26:52.932Z,11.87
2023-01-18T09:29:14.040Z,13.13
2023-01-18T09:31:36.660Z,10.93
2023-01-18T09:34:17.706Z,13.33
2023-01-18T09:36:42.826Z,12.73
2023-01-18T09:39:08.877Z,13.17
2023-01-18T09:41:37.524Z,12.50
2023-01-18T09:44:02.644Z,13.73
2023-01-18T09:46:31.740Z,12.30
2023-01-18T09:48:55.600Z,10.80
2023-01-18T09:51:20.750Z,11.47
2023-01-18T09:53:53.205Z,11.23
2023-01-18T09:56:17.352Z,12.97
2023-01-18T09:58:44.243Z,10.20
2023-01-18T10:01:07.551Z,10.23
2023-01-18T10:03:33.369Z,13.53
2023-01-18T10:06:08.312Z,10.30
2023-01-18T10:08:30.145Z,10.40
2023-01-18T10:10:54.790Z,10.70
2023-01-18T10:13:26.008Z,11.30
2023-01-18T10:15:49.456Z,11.00
2023-01-18T10:18:11.281Z,10.80
2023-01-18T10:20:36.761Z,11.97
2023-01-18T10:23:00.088Z,11.73
2023-01-18T10:25:25.511Z,10.97
2023-01-18T10:27:55.948Z,10.37
2023-01-18T10:30:31.512Z,10.03
2023-01-18T10:32:56.098Z,9.53
2023-01-18T10:35:23.673Z,10.43
2023-01-18T10:37:46.668Z,10.03
2023-01-18T10:40:10.192Z,9.40
2023-01-18T10:42:35.149Z,10.13
2023-01-18T10:44:56.569Z,10.43
2023-01-18T10:47:18.309Z,10.13
2023-01-18T10:49:41.561Z,9.87
2023-01-18T10:52:17.757Z,9.70
2023-01-18T10:54:40.263Z,9.50
2023-01-18T10:57:05.098Z,9.80
2023-01-18T10:59:29.865Z,9.53
2023-01-18T11:01:53.130Z,10.80
2023-01-18T11:04:18.916Z,9.73
2023-01-18T11:06:49.139Z,10.10
2023-01-18T11:09:30.292Z,10.67
2023-01-18T11:12:08.660Z,9.93
2023-01-18T11:14:31.560Z,9.87
2023-01-18T11:16:58.422Z,9.07
2023-01-18T11:19:19.974Z,10.93
2023-01-18T11:21:46.159Z,9.60
2023-01-18T11:24:12.390Z,9.17
2023-01-18T11:26:33.690Z,10.40
2023-01-18T11:28:58.364Z,11.07
2023-01-18T11:31:22.252Z,10.10
2023-01-18T11:33:53.642Z,9.97
2023-01-18T11:36:14.756Z,10.70
2023-01-18T11:38:36.270Z,9.63
2023-01-18T11:41:04.431Z,10.73
2023-01-18T11:43:27.909Z,10.63
2023-01-18T11:45:50.615Z,12.17
2023-01-18T11:48:14.650Z,9.57
2023-01-18T11:50:39.863Z,9.63
2023-01-18T11:53:05.785Z,10.97
2023-01-18T11:55:31.218Z,9.63
2023-01-18T11:57:54.490Z,10.43
2023-01-18T12:00:16.859Z,10.50
2023-01-18T12:02:45.445Z,9.90
2023-01-18T12:05:25.782Z,9.00
2023-01-18T12:07:50.950Z,9.37
2023-01-18T12:10:13.914Z,10.43
2023-01-18T12:12:41.625Z,12.17
2023-01-18T12:15:25.657Z,10.47
2023-01-18T12:18:11.388Z,10.70
2023-01-18T12:20:37.652Z,10.10
2023-01-18T12:23:09.654Z,9.70
2023-01-18T12:25:40.816Z,11.47
2023-01-18T12:28:07.831Z,12.77
2023-01-18T12:30:35.473Z,13.03
2023-01-18T12:33:04.766Z,11.00
2023-01-18T12:35:33.803Z,13.20
2023-01-18T12:37:58.446Z,10.87
2023-01-18T12:40:29.225Z,10.53
2023-01-18T12:42:55.013Z,11.30
2023-01-18T12:45:23.229Z,9.90
2023-01-18T12:47:48.253Z,10.67
2023-01-18T12:50:16.052Z,8.70
2023-01-18T12:52:41.197Z,8.20
2023-01-18T12:55:04.896Z,10.63
2023-01-18T12:57:26.707Z,9.70
2023-01-18T12:59:52.729Z,9.80
2023-01-18T13:02:22.392Z,10.87
2023-01-18T13:04:47.316Z,11.10
2023-01-18T13:07:13.140Z,10.80
2023-01-18T13:09:37.010Z,9.53
2023-01-18T13:11:59.367Z,11.10
2023-01-18T13:14:23.722Z,8.97
2023-01-18T13:16:49.437Z,8.97
2023-01-18T13:19:12.362Z,9.83
2023-01-18T13:21:40.263Z,9.07
2023-01-18T13:24:08.984Z,11.50
2023-01-18T13:26:31.198Z,9.67
2023-01-18T13:29:07.411Z,10.13
2023-01-18T13:31:31.352Z,10.07
2023-01-18T13:33:56.949Z,11.17
2023-01-18T13:36:21.424Z,14.27
2023-01-18T13:38:51.732Z,13.73
2023-01-18T13:41:13.677Z,11.97
2023-01-18T13:43:49.641Z,13.97
2023-01-18T13:46:19.707Z,9.87
2023-01-18T13:48:45.564Z,16.20
2023-01-18T13:51:08.402Z,35.37
2023-01-18T13:53:31.867Z,10.93
2023-01-18T13:56:12.351Z,14.47
2023-01-18T13:58:34.740Z,10.07
2023-01-18T14:00:58.493Z,9.30
2023-01-18T14:03:22.920Z,9.83
2023-01-18T14:05:45.369Z,9.13
2023-01-18T14:08:07.002Z,9.80
2023-01-18T14:10:31.611Z,9.53
2023-01-18T14:12:55.244Z,9.93
2023-01-18T14:15:37.683Z,9.17
2023-01-18T14:17:59.524Z,11.57
2023-01-18T14:20:40.136Z,9.73
2023-01-18T14:23:18.489Z,9.87
2023-01-18T14:25:51.596Z,15.43
2023-01-18T14:28:16.724Z,7.73
2023-01-18T14:30:39.037Z,10.23
2023-01-18T14:33:03.586Z,11.93
2023-01-18T14:35:25.964Z,16.40
2023-01-18T14:37:47.844Z,9.57
2023-01-18T14:40:15.707Z,10.93
2023-01-18T14:42:40.089Z,10.10
2023-01-18T14:45:03.022Z,8.40
2023-01-18T14:47:31.142Z,8.43
2023-01-18T14:49:53.108Z,11.77
2023-01-18T14:52:15.420Z,10.03
2023-01-18T14:54:36.635Z,11.63
2023-01-18T14:57:01.925Z,10.70
2023-01-18T14:59:24.029Z,7.93
2023-01-18T15:01:52.269Z,15.67
2023-01-18T15:04:20.019Z,12.47
2023-01-18T15:06:42.340Z,13.77
2023-01-18T15:09:05.117Z,12.37
2023-01-18T15:11:27.009Z,9.30
2023-01-18T15:13:50.865Z,11.77
2023-01-18T15:16:12.515Z,11.27
2023-01-18T15:18:36.046Z,13.03
2023-01-18T15:20:58.360Z,11.47
2023-01-18T15:23:19.759Z,12.93
2023-01-18T15:25:40.925Z,11.67
2023-01-18T15:28:18.362Z,10.03
2023-01-18T15:30:48.658Z,14.40
2023-01-18T15:33:10.315Z,11.40
2023-01-18T15:35:32.979Z,11.17
2023-01-18T15:37:54.856Z,10.50
2023-01-18T15:40:24.061Z,11.60
2023-01-18T15:42:46.077Z,8.77
2023-01-18T15:45:14.595Z,12.73
2023-01-18T15:47:36.776Z,8.93
2023-01-18T15:49:59.003Z,8.43
2023-01-18T15:52:43.854Z,8.60
2023-01-18T15:55:07.086Z,9.47
2023-01-18T15:57:28.731Z,8.70
2023-01-18T15:59:50.062Z,12.37
2023-01-18T16:02:19.619Z,10.73
2023-01-18T16:04:41.627Z,11.40
2023-01-18T16:07:17.689Z,15.87
2023-01-18T16:09:40.921Z,12.90
2023-01-18T16:12:04.488Z,15.87
2023-01-18T16:14:32.803Z,13.70
2023-01-18T16:16:55.154Z,17.83
2023-01-18T16:19:23.947Z,15.53
2023-01-18T16:21:46.852Z,24.33
2023-01-18T16:24:15.812Z,23.83
2023-01-18T16:26:41.538Z,33.67
2023-01-18T16:29:06.815Z,28.83
2023-01-18T16:31:29.178Z,38.60
2023-01-18T16:33:50.327Z,25.07
2023-01-18T16:36:16.732Z,23.93
2023-01-18T16:38:38.146Z,20.70
2023-01-18T16:40:59.700Z,21.10
2023-01-18T16:43:23.356Z,16.73
2023-01-18T16:45:45.318Z,16.40
2023-01-18T16:48:07.069Z,16.67
2023-01-18T16:50:28.711Z,13.73
2023-01-18T16:52:49.984Z,14.60
2023-01-18T16:55:12.746Z,14.37
2023-01-18T16:57:34.158Z,15.10
2023-01-18T16:59:56.995Z,13.00
2023-01-18T17:02:18.564Z,12.80
2023-01-18T17:04:40.400Z,12.40
2023-01-18T17:07:01.999Z,11.97
2023-01-18T17:09:24.233Z,13.07
2023-01-18T17:11:45.652Z,11.20
2023-01-18T17:14:07.039Z,11.07
2023-01-18T17:16:29.777Z,14.10
2023-01-18T17:18:51.381Z,10.43
2023-01-18T17:21:13.061Z,10.57
2023-01-18T17:23:34.423Z,9.77
2023-01-18T17:25:55.589Z,10.33
2023-01-18T17:28:18.181Z,12.33
2023-01-18T17:30:39.861Z,10.23
2023-01-18T17:33:02.997Z,10.43
2023-01-18T17:35:25.029Z,10.10
2023-01-18T17:37:46.557Z,10.87
2023-01-18T17:40:19.703Z,11.53
2023-01-18T17:42:46.131Z,12.27
2023-01-18T17:45:14.540Z,12.83
2023-01-18T17:47:38.820Z,10.00
2023-01-18T17:50:08.533Z,11.20
2023-01-18T17:52:29.968Z,10.37
2023-01-18T17:54:50.918Z,12.03
2023-01-18T17:57:12.325Z,11.53
2023-01-18T17:59:33.577Z,13.23
2023-01-18T18:01:55.012Z,14.47
2023-01-18T18:04:16.290Z,14.40
2023-01-18T18:06:46.089Z,14.30
2023-01-18T18:09:10.814Z,12.63
2023-01-18T18:11:32.162Z,11.73
2023-01-18T18:13:54.476Z,12.63
2023-01-18T18:16:18.853Z,10.90
2023-01-18T18:18:40.765Z,13.80
2023-01-18T18:21:02.756Z,12.30
2023-01-18T18:23:25.566Z,13.40
2023-01-18T18:25:48.236Z,11.50
2023-01-18T18:28:09.162Z,10.80
2023-01-18T18:30:30.731Z,12.97
2023-01-18T18:32:51.822Z,12.83
2023-01-18T18:35:25.409Z,15.60
2023-01-18T18:37:47.493Z,12.23
2023-01-18T18:40:11.115Z,13.60
2023-01-18T18:42:32.246Z,18.13
2023-01-18T18:44:53.691Z,18.23
2023-01-18T18:47:15.269Z,16.17
2023-01-18T18:49:36.741Z,13.83
2023-01-18T18:52:00.153Z,15.63
2023-01-18T18:54:21.392Z,14.73
2023-01-18T18:56:44.559Z,14.63
2023-01-18T18:59:05.675Z,19.37
2023-01-18T19:01:29.233Z,16.30
2023-01-18T19:03:51.765Z,16.53
2023-01-18T19:06:13.054Z,22.87
2023-01-18T19:08:34.498Z,18.90
2023-01-18T19:10:57.113Z,22.67
2023-01-18T19:13:19.656Z,17.80
2023-01-18T19:15:45.507Z,17.63
2023-01-18T19:18:06.607Z,17.00
2023-01-18T19:20:27.876Z,16.53
2023-01-18T19:22:49.146Z,17.67
2023-01-18T19:25:10.532Z,14.57
2023-01-18T19:27:31.487Z,15.67
2023-01-18T19:29:55.505Z,13.00
2023-01-18T19:32:17.104Z,14.40
2023-01-18T19:34:38.780Z,14.63
2023-01-18T19:37:00.190Z,13.50
2023-01-18T19:39:22.787Z,16.70
2023-01-18T19:41:44.363Z,16.27
2023-01-18T19:44:05.820Z,13.40
2023-01-18T19:46:30.535Z,16.43
2023-01-18T19:48:56.274Z,16.73
2023-01-18T19:51:22.876Z,15.17
2023-01-18T19:53:44.349Z,15.33
2023-01-18T19:56:07.462Z,16.77
2023-01-18T19:58:30.050Z,15.27
2023-01-18T20:00:51.362Z,16.43
2023-01-18T20:03:14.624Z,81.87
2023-01-18T20:05:35.677Z,77.83
2023-01-18T20:07:56.983Z,40.87
2023-01-18T20:10:20.302Z,32.87
2023-01-18T20:12:41.606Z,52.27
2023-01-18T20:15:03.006Z,30.53
2023-01-18T20:17:24.329Z,32.20
2023-01-18T20:19:47.010Z,35.10
2023-01-18T20:22:08.573Z,94.23
2023-01-18T20:24:29.782Z,64.53
2023-01-18T20:26:51.509Z,59.90
2023-01-18T20:29:13.113Z,49.73
2023-01-18T20:31:36.121Z,38.33
2023-01-18T20:33:57.820Z,32.80
2023-01-18T20:36:20.312Z,29.73
2023-01-18T20:38:41.624Z,26.00
2023-01-18T20:41:03.145Z,25.10
2023-01-18T20:43:24.790Z,28.47
2023-01-18T20:45:46.077Z,25.43
2023-01-18T20:48:07.691Z,31.63
2023-01-18T20:50:29.079Z,28.07
2023-01-18T20:52:52.102Z,25.60
2023-01-18T20:55:14.625Z,25.50
2023-01-18T20:57:35.865Z,24.50
2023-01-18T20:59:57.042Z,24.47
2023-01-18T21:02:18.292Z,26.37
2023-01-18T21:04:39.447Z,30.40
2023-01-18T21:07:00.820Z,22.57
2023-01-18T21:09:23.929Z,21.07
2023-01-18T21:11:45.382Z,21.37
2023-01-18T21:14:06.825Z,26.57
2023-01-18T21:16:28.577Z,21.20
2023-01-18T21:18:52.567Z,20.73
2023-01-18T21:21:13.939Z,24.73
2023-01-18T21:23:39.318Z,21.03
2023-01-18T21:26:02.224Z,23.40
2023-01-18T21:28:23.755Z,26.27
2023-01-18T21:30:44.810Z,22.33
2023-01-18T21:33:07.064Z,21.43
2023-01-18T21:35:29.887Z,17.87
2023-01-18T21:37:50.812Z,18.77
2023-01-18T21:40:12.661Z,16.80
2023-01-18T21:42:52.840Z,18.00
2023-01-18T21:45:31.632Z,16.70
2023-01-18T21:47:52.760Z,19.13
2023-01-18T21:50:31.491Z,18.37
2023-01-18T21:53:10.451Z,18.63
2023-01-18T21:55:31.719Z,16.90
2023-01-18T21:58:08.286Z,17.47
2023-01-18T22:00:29.400Z,20.30
2023-01-18T22:02:50.753Z,17.73
2023-01-18T22:05:12.104Z,30.17
2023-01-18T22:07:34.096Z,27.90
2023-01-18T22:10:04.622Z,24.00
2023-01-18T22:12:26.823Z,21.33
2023-01-18T22:14:50.924Z,17.23
2023-01-18T22:17:13.206Z,17.47
2023-01-18T22:19:34.887Z,16.60
2023-01-18T22:21:56.309Z,22.37
2023-01-18T22:24:17.907Z,19.80
2023-01-18T22:26:40.761Z,19.57
2023-01-18T22:29:01.994Z,20.07
2023-01-18T22:31:24.329Z,16.43
2023-01-18T22:33:46.122Z,20.77
2023-01-18T22:36:07.669Z,18.67
2023-01-18T22:38:29.071Z,20.73
2023-01-18T22:40:50.411Z,23.23
2023-01-18T22:43:11.762Z,20.03
2023-01-18T22:45:32.957Z,16.47
2023-01-18T22:47:55.624Z,19.63
2023-01-18T22:50:17.239Z,18.00
2023-01-18T22:52:38.623Z,17.33
2023-01-18T22:54:59.896Z,16.43
2023-01-18T22:57:21.066Z,17.50
2023-01-18T22:59:42.342Z,22.20
2023-01-18T23:02:03.702Z,16.27
2023-01-18T23:04:29.518Z,19.13
2023-01-18T23:06:54.640Z,18.97
2023-01-18T23:09:16.607Z,16.10
2023-01-18T23:11:38.584Z,21.47
2023-01-18T23:14:17.690Z,18.90
2023-01-18T23:16:56.485Z,16.77
2023-01-18T23:19:18.007Z,16.00
2023-01-18T23:21:40.427Z,18.90
2023-01-18T23:24:01.605Z,20.93
2023-01-18T23:26:22.974Z,18.90
2023-01-18T23:28:44.429Z,22.00
2023-01-18T23:31:05.879Z,21.10
2023-01-18T23:33:26.780Z,21.60
2023-01-18T23:35:48.089Z,18.70
2023-01-18T23:38:10.713Z,20.93
2023-01-18T23:40:49.855Z,22.20
2023-01-18T23:43:29.000Z,20.17
2023-01-18T23:46:07.785Z,20.03
2023-01-18T23:48:46.633Z,19.63
2023-01-18T23:51:27.777Z,21.60
2023-01-18T23:54:08.989Z,21.73
2023-01-18T23:56:30.606Z,22.87
2023-01-18T23:58:51.595Z,20.43
